E.r.bristol — A8XQ6 — position and weather

sailwx.info

Track history (hours):
 
Tides and Currents Weather Stations Pressure Air Temp Water Temp Dewpoint Dewpoint Depression Visibility Wind Speed Wind Dir Waves Ship Positions

E.r.bristol

Last reported at 2015-May-12 18:11 UTC. Time now 2015-May-24 07:14 UTC.
Position N 19°32' W 095°58'.
Warning: this ship's position is 11 days out of date.

Length 188 m; draft 6.9 m.

Type: Cargo ship. MMSI: 636092151.

Date/timePositionNaut miles runAvg speedWind from/ knotsBaromVisibWave heightAir tempDewpointWater temp
2015-May-12 18:11N 19°32' W 095°58'710.6
2015-May-12 17:33N 19°25' W 095°58'1010.5
2015-May-12 16:34N 19°15' W 095°57'9 8.7
2015-May-12 15:34N 19°12' W 096°06'2 1.7
2015-May-12 14:31N 19°12' W 096°08'0 0.0
2015-May-12 13:31N 19°12' W 096°08'0 0.0
2015-May-12 12:31N 19°12' W 096°08'0 0.0
2015-May-12 11:31N 19°12' W 096°08'0 0.0
2015-May-12 10:31N 19°12' W 096°08'0 0.0
2015-May-12 09:31N 19°12' W 096°08'0 0.0
2015-May-12 08:31N 19°12' W 096°08'0 0.0
2015-May-12 07:31N 19°12' W 096°08'0 0.0
2015-May-12 06:31N 19°12' W 096°08'0 0.0
2015-May-12 05:31N 19°12' W 096°08'0 0.0
2015-May-12 04:31N 19°12' W 096°08'0 0.0
2015-May-12 03:31N 19°12' W 096°08'0 0.0
2015-May-12 02:31N 19°12' W 096°08'0 0.0
2015-May-12 01:31N 19°12' W 096°08'0 0.0
2015-May-12 00:31N 19°12' W 096°08'0 0.0
2015-May-11 23:31N 19°12' W 096°08'0 0.0
2015-May-11 22:31N 19°12' W 096°08'0 0.0
2015-May-11 21:31N 19°12' W 096°08'0 0.0
2015-May-11 20:31N 19°12' W 096°08'0 0.0
2015-May-11 19:31N 19°12' W 096°08'0 0.0
2015-May-11 18:31N 19°12' W 096°08'0 0.0
2015-May-11 17:31N 19°12' W 096°08'0 0.0
2015-May-11 16:31N 19°12' W 096°08'0 0.0
2015-May-11 15:31N 19°12' W 096°08'0 0.0
2015-May-11 14:31N 19°12' W 096°08'0 0.0
2015-May-11 13:31N 19°12' W 096°08'0 0.0
2015-May-11 12:31N 19°12' W 096°08'0 0.0
2015-May-11 11:31N 19°12' W 096°08'0 0.4
2015-May-11 10:34N 19°12' W 096°08'5 5.3
2015-May-11 09:33N 19°09' W 096°03'0 0.2
2015-May-11 08:33N 19°09' W 096°03'0 0.0
2015-May-11 07:33N 19°09' W 096°03'0 0.0
2015-May-11 06:33N 19°09' W 096°03'0 0.0
2015-May-11 05:33N 19°09' W 096°03'0 0.0
2015-May-11 04:33N 19°09' W 096°03'0 0.0
2015-May-11 03:33N 19°09' W 096°03'0 0.0
2015-May-11 02:33N 19°09' W 096°03'0 0.0
2015-May-11 01:33N 19°09' W 096°03'0 0.0
2015-May-11 00:33N 19°09' W 096°03'0 0.0
2015-May-10 23:33N 19°09' W 096°03'3 3.4
2015-May-10 22:33N 19°12' W 096°00'1110.7
2015-May-10 21:33N 19°14' W 095°50'2310.2
2015-May-10 19:19N 19°27' W 095°29'  
Track history (hours):
 
Tides and Currents Weather Stations Pressure Air Temp Water Temp Dewpoint Dewpoint Depression Visibility Wind Speed Wind Dir Waves Ship Positions

E.r.bristol

Last reported at 2015-May-12 18:11 UTC. Time now 2015-May-24 07:14 UTC.
Position N 19°32' W 095°58'.
Warning: this ship's position is 11 days out of date.

Length 188 m; draft 6.9 m.

Type: Cargo ship. MMSI: 636092151.

Date/timePositionNaut miles runAvg speedWind from/ knotsBaromVisibWave heightAir tempDewpointWater temp
2015-May-12 18:11N 19°32' W 095°58'710.6
2015-May-12 17:33N 19°25' W 095°58'1010.5
2015-May-12 16:34N 19°15' W 095°57'9 8.7
2015-May-12 15:34N 19°12' W 096°06'2 1.7
2015-May-12 14:31N 19°12' W 096°08'0 0.0
2015-May-12 13:31N 19°12' W 096°08'0 0.0
2015-May-12 12:31N 19°12' W 096°08'0 0.0
2015-May-12 11:31N 19°12' W 096°08'0 0.0
2015-May-12 10:31N 19°12' W 096°08'0 0.0
2015-May-12 09:31N 19°12' W 096°08'0 0.0
2015-May-12 08:31N 19°12' W 096°08'0 0.0
2015-May-12 07:31N 19°12' W 096°08'0 0.0
2015-May-12 06:31N 19°12' W 096°08'0 0.0
2015-May-12 05:31N 19°12' W 096°08'0 0.0
2015-May-12 04:31N 19°12' W 096°08'0 0.0
2015-May-12 03:31N 19°12' W 096°08'0 0.0
2015-May-12 02:31N 19°12' W 096°08'0 0.0
2015-May-12 01:31N 19°12' W 096°08'0 0.0
2015-May-12 00:31N 19°12' W 096°08'0 0.0
2015-May-11 23:31N 19°12' W 096°08'0 0.0
2015-May-11 22:31N 19°12' W 096°08'0 0.0
2015-May-11 21:31N 19°12' W 096°08'0 0.0
2015-May-11 20:31N 19°12' W 096°08'0 0.0
2015-May-11 19:31N 19°12' W 096°08'0 0.0
2015-May-11 18:31N 19°12' W 096°08'0 0.0
2015-May-11 17:31N 19°12' W 096°08'0 0.0
2015-May-11 16:31N 19°12' W 096°08'0 0.0
2015-May-11 15:31N 19°12' W 096°08'0 0.0
2015-May-11 14:31N 19°12' W 096°08'0 0.0
2015-May-11 13:31N 19°12' W 096°08'0 0.0
2015-May-11 12:31N 19°12' W 096°08'0 0.0
2015-May-11 11:31N 19°12' W 096°08'0 0.4
2015-May-11 10:34N 19°12' W 096°08'5 5.3
2015-May-11 09:33N 19°09' W 096°03'0 0.2
2015-May-11 08:33N 19°09' W 096°03'0 0.0
2015-May-11 07:33N 19°09' W 096°03'0 0.0
2015-May-11 06:33N 19°09' W 096°03'0 0.0
2015-May-11 05:33N 19°09' W 096°03'0 0.0
2015-May-11 04:33N 19°09' W 096°03'0 0.0
2015-May-11 03:33N 19°09' W 096°03'0 0.0
2015-May-11 02:33N 19°09' W 096°03'0 0.0
2015-May-11 01:33N 19°09' W 096°03'0 0.0
2015-May-11 00:33N 19°09' W 096°03'0 0.0
2015-May-10 23:33N 19°09' W 096°03'3 3.4
2015-May-10 22:33N 19°12' W 096°00'1110.7
2015-May-10 21:33N 19°14' W 095°50'2310.2
2015-May-10 19:19N 19°27' W 095°29'  

Dump ship's entire track history